Time;durP1;ratioP1;P1;durP2;ratioP2;P2;SDS_P1;SDS_P2;PMS_P1;PMS_P2;Temp;Humidity;BMP_temperature;BMP_pressure;BME280_temperature;BME280_humidity;BME280_pressure;Samples;Min_cycle;Max_cycle;Signal;HPM_P1;HPM_P2
2022/11/04 00:01:45;;;;;;;2.10;1.90;;;17.00;66.30;18.20;99444.00;;;;5012126;28;20186;-45
2022/11/04 00:04:12;;;;;;;1.70;1.50;;;17.00;66.30;18.20;99459.00;;;;5011596;28;20801;-46
2022/11/04 00:06:38;;;;;;;2.00;1.80;;;17.00;66.20;18.20;99446.00;;;;5010332;28;20184;-46
2022/11/04 00:09:05;;;;;;;1.70;1.60;;;17.00;66.30;18.20;99449.00;;;;5011716;28;20181;-46
2022/11/04 00:14:15;;;;;;;1.60;1.50;;;17.00;66.30;18.20;99452.00;;;;5011189;28;20178;-45
2022/11/04 00:19:25;;;;;;;1.90;1.70;;;16.90;67.00;18.20;99463.00;;;;5011786;28;20163;-47
2022/11/04 00:30:08;;;;;;;1.60;1.50;;;16.80;66.10;18.10;99497.00;;;;5011215;28;20216;-46
2022/11/04 00:35:18;;;;;;;1.60;1.50;;;16.90;66.10;18.10;99498.00;;;;4996061;28;20167;-46
2022/11/04 00:37:44;;;;;;;1.60;1.50;;;16.80;66.00;18.10;99486.00;;;;5010854;28;20190;-46
2022/11/04 00:40:13;;;;;;;1.57;1.47;;;16.80;66.00;18.00;99492.00;;;;4993640;28;20214;-46
2022/11/04 00:42:39;;;;;;;1.70;1.60;;;16.80;66.00;18.00;99494.00;;;;5010538;28;20213;-46
2022/11/04 00:45:06;;;;;;;1.60;1.50;;;16.90;66.10;18.00;99485.00;;;;5010660;28;20175;-46
2022/11/04 00:47:31;;;;;;;1.67;1.57;;;16.80;66.00;18.00;99488.00;;;;5010305;28;20183;-46
2022/11/04 00:49:57;;;;;;;1.97;1.50;;;16.90;66.10;18.00;99490.00;;;;5010625;28;20180;-45
2022/11/04 00:52:23;;;;;;;1.70;1.60;;;16.80;66.00;18.00;99493.00;;;;5010578;28;20605;-46
2022/11/04 00:54:48;;;;;;;1.47;1.30;;;16.80;66.00;18.00;99501.00;;;;5010511;28;20191;-46
2022/11/04 00:57:14;;;;;;;1.70;1.60;;;16.80;66.00;18.00;99509.00;;;;5010705;28;20206;-46
2022/11/04 00:59:40;;;;;;;1.50;1.40;;;16.80;66.00;18.00;99512.00;;;;5010207;28;20290;-46
2022/11/04 01:02:07;;;;;;;1.60;1.50;;;16.80;66.00;18.00;99514.00;;;;4992524;28;20213;-46
2022/11/04 01:04:33;;;;;;;2.00;1.40;;;16.80;66.00;18.00;99512.00;;;;5010600;28;20313;-46
2022/11/04 01:06:59;;;;;;;1.60;1.50;;;16.80;66.00;18.00;99520.00;;;;5010375;28;20257;-46
2022/11/04 01:09:25;;;;;;;1.63;1.53;;;16.80;66.00;18.00;99527.00;;;;4992762;28;20599;-46
2022/11/04 01:11:51;;;;;;;1.60;1.50;;;16.70;65.80;18.00;99531.00;;;;5009620;28;20308;-46
2022/11/04 01:14:17;;;;;;;1.40;1.30;;;16.80;66.00;18.00;99544.00;;;;5010198;28;20194;-46
2022/11/04 01:16:43;;;;;;;1.57;1.47;;;16.80;66.80;18.00;99546.00;;;;5010054;28;20182;-46
2022/11/04 01:19:09;;;;;;;1.73;1.63;;;16.80;66.10;17.90;99548.00;;;;5010031;28;20181;-47
2022/11/04 01:21:35;;;;;;;1.80;1.70;;;16.80;66.10;17.90;99563.00;;;;5009641;28;20261;-46
2022/11/04 01:24:00;;;;;;;1.50;1.40;;;16.80;66.00;17.90;99557.00;;;;5009842;28;20790;-45
2022/11/04 01:26:27;;;;;;;1.30;1.30;;;16.80;66.10;17.90;99563.00;;;;5010140;28;20176;-46
2022/11/04 01:28:53;;;;;;;2.53;1.57;;;16.70;66.10;17.90;99563.00;;;;5010189;28;20179;-46
2022/11/04 01:31:22;;;;;;;2.33;1.90;;;16.70;66.10;17.90;99573.00;;;;5009528;28;20851;-46
2022/11/04 01:33:49;;;;;;;1.70;1.60;;;16.70;66.10;17.90;99576.00;;;;5009905;28;20342;-46
2022/11/04 01:36:15;;;;;;;1.70;1.60;;;16.70;66.10;17.90;99573.00;;;;5009561;28;20174;-46
2022/11/04 01:38:41;;;;;;;1.50;1.40;;;16.80;67.20;17.90;99574.00;;;;5009808;28;20172;-46
2022/11/04 01:41:07;;;;;;;1.40;1.30;;;16.70;66.40;17.90;99569.00;;;;5010162;28;20206;-46
2022/11/04 01:43:45;;;;;;;3.00;1.70;;;16.70;66.40;17.90;99573.00;;;;5009660;28;20195;-46
2022/11/04 01:46:37;;;;;;;2.03;1.70;;;16.70;66.40;17.90;99578.00;;;;5008316;28;20182;-46
2022/11/04 01:49:26;;;;;;;1.90;1.60;;;16.70;66.40;17.90;99577.00;;;;5009325;28;20185;-46
2022/11/04 01:51:59;;;;;;;1.70;1.50;;;16.70;66.20;17.90;99556.00;;;;4978448;28;20191;-46
2022/11/04 01:54:26;;;;;;;2.77;1.80;;;16.70;66.30;17.50;99580.00;;;;4993095;28;20264;-46
2022/11/04 01:56:51;;;;;;;1.87;1.50;;;16.70;66.30;17.60;99579.00;;;;4991956;28;20715;-46
2022/11/04 01:59:25;;;;;;;1.60;1.50;;;16.70;66.40;17.90;99552.00;;;;5009409;28;20313;-46
2022/11/04 02:01:51;;;;;;;1.73;1.60;;;16.70;66.40;17.90;99566.00;;;;4991805;28;20619;-46
2022/11/04 02:04:25;;;;;;;1.87;1.77;;;16.70;66.40;17.90;99571.00;;;;4991735;28;20183;-46
2022/11/04 02:06:57;;;;;;;1.20;1.20;;;16.70;66.50;17.80;99580.00;;;;4963501;28;20179;-46
2022/11/04 02:09:24;;;;;;;1.33;1.23;;;16.60;66.40;17.80;99578.00;;;;5007965;28;20296;-46
2022/11/04 02:14:34;;;;;;;2.20;1.83;;;16.60;66.40;17.80;99588.00;;;;5009486;28;20184;-46
2022/11/04 02:17:16;;;;;;;1.50;1.40;;;16.60;66.30;17.80;99578.00;;;;4991423;28;20170;-46
2022/11/04 02:20:26;;;;;;;1.70;1.60;;;16.60;66.30;17.80;99576.00;;;;4992791;28;20171;-45
2022/11/04 02:23:12;;;;;;;1.73;1.50;;;16.60;66.30;17.80;99585.00;;;;4991850;28;20218;-46
2022/11/04 02:25:56;;;;;;;1.53;1.43;;;16.60;66.30;17.80;99570.00;;;;4993691;28;20174;-45
2022/11/04 02:28:37;;;;;;;1.67;1.57;;;16.60;66.20;17.80;99570.00;;;;4976985;28;20168;-46
2022/11/04 02:31:44;;;;;;;1.83;1.37;;;16.60;66.20;17.80;99565.00;;;;5008672;28;20181;-46
2022/11/04 02:34:35;;;;;;;1.90;1.57;;;16.60;66.20;17.80;99567.00;;;;4993777;28;20697;-45
2022/11/04 02:37:20;;;;;;;1.70;1.60;;;16.60;66.10;17.70;99561.00;;;;4991875;28;20179;-46
2022/11/04 02:39:58;;;;;;;1.97;1.60;;;16.50;66.00;17.70;99571.00;;;;5008361;28;20164;-45
2022/11/04 02:43:03;;;;;;;1.47;1.37;;;16.60;66.20;17.70;99565.00;;;;4960258;28;20282;-46
2022/11/04 02:45:39;;;;;;;1.87;1.53;;;16.50;66.20;17.70;99573.00;;;;4995013;28;20182;-46
2022/11/04 02:48:14;;;;;;;1.70;1.50;;;16.50;66.20;17.70;99570.00;;;;5008966;28;20173;-46
2022/11/04 02:51:04;;;;;;;1.67;1.50;;;16.50;66.20;17.70;99574.00;;;;4992349;28;20160;-45
2022/11/04 02:53:44;;;;;;;1.70;1.40;;;16.50;66.20;17.60;99565.00;;;;4976328;28;20215;-47
2022/11/04 02:56:10;;;;;;;1.57;1.47;;;16.50;66.30;17.60;99573.00;;;;4960892;28;20178;-46
2022/11/04 02:58:52;;;;;;;1.63;1.53;;;16.50;66.30;17.60;99569.00;;;;4990791;28;20246;-46
2022/11/04 03:01:18;;;;;;;1.60;1.50;;;16.50;66.30;17.60;99579.00;;;;4976474;28;20600;-46
2022/11/04 03:03:47;;;;;;;1.70;1.60;;;16.50;66.30;17.60;99574.00;;;;4958801;28;20205;-46
2022/11/04 03:06:14;;;;;;;1.70;1.60;;;16.50;66.30;17.60;99588.00;;;;4975152;28;20757;-47
2022/11/04 03:08:46;;;;;;;1.60;1.50;;;16.50;66.40;17.60;99576.00;;;;4958957;28;20591;-46
2022/11/04 03:11:19;;;;;;;1.53;1.43;;;16.50;66.40;17.60;99554.00;;;;4959758;28;20161;-46
2022/11/04 03:13:51;;;;;;;1.63;1.40;;;16.50;66.30;17.60;99567.00;;;;4976388;28;20246;-46
2022/11/04 03:16:20;;;;;;;2.00;1.50;;;16.50;66.40;17.60;99574.00;;;;4991676;28;20168;-46
2022/11/04 03:19:00;;;;;;;1.53;1.43;;;16.50;66.30;17.60;99563.00;;;;4992714;28;20174;-46
2022/11/04 03:21:27;;;;;;;1.60;1.50;;;16.50;66.40;17.60;99547.00;;;;5008357;28;20170;-47
2022/11/04 03:23:53;;;;;;;2.53;1.50;;;16.50;66.30;17.60;99565.00;;;;4990745;28;20210;-46
2022/11/04 03:26:44;;;;;;;1.50;1.40;;;16.40;66.30;17.60;99566.00;;;;4990238;28;20172;-46
2022/11/04 03:29:31;;;;;;;1.77;1.50;;;16.50;66.50;17.60;99562.00;;;;4977368;28;20548;-46
2022/11/04 03:32:22;;;;;;;1.50;1.40;;;16.50;66.60;17.60;99567.00;;;;4994404;28;20204;-48
2022/11/04 03:34:48;;;;;;;1.30;1.20;;;16.50;66.50;17.60;99560.00;;;;4997737;28;20164;-45
2022/11/04 03:37:14;;;;;;;1.40;1.30;;;16.50;66.40;17.60;99554.00;;;;4994485;28;20201;-46
2022/11/04 03:39:39;;;;;;;1.60;1.50;;;16.50;66.40;17.50;99563.00;;;;5012078;28;20169;-46
2022/11/04 03:42:18;;;;;;;2.43;1.60;;;16.40;66.40;17.50;99563.00;;;;5011658;28;20200;-46
2022/11/04 03:44:49;;;;;;;1.50;1.40;;;16.50;66.50;17.50;99552.00;;;;4996037;28;20169;-46
2022/11/04 03:47:16;;;;;;;1.90;1.40;;;16.50;66.50;17.50;99552.00;;;;4995785;28;20175;-46
2022/11/04 03:49:44;;;;;;;2.00;1.57;;;16.40;66.30;17.50;99551.00;;;;4994659;28;20771;-46
2022/11/04 03:52:10;;;;;;;1.77;1.40;;;16.40;66.40;17.50;99567.00;;;;4978673;28;20274;-46
2022/11/04 03:54:36;;;;;;;1.87;1.50;;;16.40;66.40;17.50;99488.00;;;;4994143;28;20187;-47
2022/11/04 03:57:43;;;;;;;2.20;1.60;;;16.40;66.30;17.50;99571.00;;;;4994053;28;20528;-46
2022/11/04 04:00:13;;;;;;;3.10;1.80;;;16.40;66.40;17.50;99574.00;;;;4996616;28;20172;-46
2022/11/04 04:03:08;;;;;;;2.03;1.50;;;16.40;66.40;17.50;99573.00;;;;4993794;28;20677;-46
2022/11/04 04:05:54;;;;;;;1.60;1.50;;;16.40;66.50;17.50;99570.00;;;;4993769;28;20288;-45
2022/11/04 04:08:35;;;;;;;3.23;1.40;;;16.50;66.60;17.50;99565.00;;;;5011177;28;20168;-46
2022/11/04 04:11:34;;;;;;;1.50;1.40;;;16.40;66.40;17.50;99570.00;;;;4993914;28;20246;-46
2022/11/04 04:14:40;;;;;;;2.90;1.50;;;16.40;66.40;17.50;99565.00;;;;4981262;28;20207;-47
2022/11/04 04:17:15;;;;;;;2.13;1.40;;;16.40;66.40;17.50;99531.00;;;;4997188;28;20211;-47
2022/11/04 04:20:25;;;;;;;1.47;1.33;;;16.40;66.40;17.50;99568.00;;;;4978398;28;20584;-46
2022/11/04 04:28:45;;;;;;;8.67;1.83;;;16.40;66.70;17.40;99571.00;;;;4982674;28;20232;-46
2022/11/04 04:31:10;;;;;;;1.93;1.40;;;16.40;67.10;17.40;99565.00;;;;4993379;28;20728;-47
2022/11/04 04:33:38;;;;;;;4.00;1.50;;;16.40;66.90;17.50;99570.00;;;;4977171;28;20294;-46
2022/11/04 04:36:03;;;;;;;7.73;1.97;;;16.40;66.80;17.50;99575.00;;;;4977603;28;20168;-46
2022/11/04 04:47:21;;;;;;;4.70;1.60;;;16.40;66.80;17.40;99584.00;;;;4982774;28;20707;-46
2022/11/04 04:49:50;;;;;;;4.33;1.60;;;16.40;66.80;17.40;99592.00;;;;4979576;28;20170;-46
2022/11/04 04:52:16;;;;;;;4.77;1.63;;;16.40;66.80;17.40;99594.00;;;;5011166;28;20201;-45
2022/11/04 04:54:41;;;;;;;4.97;1.67;;;16.40;66.70;17.40;99586.00;;;;4993930;28;20783;-46
2022/11/04 04:57:07;;;;;;;2.87;1.40;;;16.30;67.50;17.40;99578.00;;;;4993838;28;20180;-45
2022/11/04 04:59:33;;;;;;;2.40;1.60;;;16.30;66.70;17.40;99579.00;;;;5011430;28;20196;-45
2022/11/04 05:01:58;;;;;;;1.87;1.50;;;16.30;66.80;17.40;99584.00;;;;5011141;28;20208;-44
2022/11/04 05:04:24;;;;;;;4.03;1.70;;;16.30;66.70;17.40;99592.00;;;;5011412;28;20184;-47
2022/11/04 05:06:50;;;;;;;4.17;1.87;;;16.30;66.70;17.40;99598.00;;;;5010942;28;20211;-46
2022/11/04 05:09:16;;;;;;;5.73;1.80;;;16.30;66.70;17.40;99588.00;;;;5011229;28;20187;-45
2022/11/04 05:11:41;;;;;;;5.77;1.70;;;16.30;66.80;17.40;99585.00;;;;5010341;28;20216;-45
2022/11/04 05:14:07;;;;;;;2.67;1.70;;;16.30;66.90;17.40;99581.00;;;;5011165;28;20168;-44
2022/11/04 05:16:33;;;;;;;6.37;1.77;;;16.30;66.80;17.40;99570.00;;;;5011202;28;20549;-45
2022/11/04 05:18:58;;;;;;;10.57;1.80;;;16.30;67.00;17.40;99581.00;;;;5011482;28;20180;-45
2022/11/04 05:21:24;;;;;;;3.27;1.60;;;16.30;67.00;17.40;99583.00;;;;5011186;28;20226;-44
2022/11/04 05:23:50;;;;;;;4.73;1.80;;;16.30;66.90;17.40;99585.00;;;;5011291;28;20632;-47
2022/11/04 05:26:16;;;;;;;6.47;2.10;;;16.30;66.80;17.40;99582.00;;;;5011282;28;20285;-46
2022/11/04 05:28:42;;;;;;;3.70;1.80;;;16.30;66.80;17.40;99597.00;;;;5010973;28;20207;-46
2022/11/04 05:31:07;;;;;;;2.67;1.67;;;16.30;66.90;17.40;99600.00;;;;5008310;28;20218;-45
2022/11/04 05:33:33;;;;;;;3.73;1.90;;;16.30;67.00;17.40;99595.00;;;;5009606;28;20193;-46
2022/11/04 05:36:10;;;;;;;4.63;1.80;;;16.30;67.00;17.40;99603.00;;;;5010280;28;20197;-46
2022/11/04 05:38:36;;;;;;;5.90;1.87;;;16.30;67.10;17.30;99591.00;;;;5010205;28;20148;-46
2022/11/04 05:41:02;;;;;;;2.60;1.80;;;16.30;67.10;17.30;99596.00;;;;5010368;28;20235;-45
2022/11/04 05:43:27;;;;;;;6.30;2.10;;;16.20;67.20;17.30;99605.00;;;;5009724;28;20207;-47
2022/11/04 05:45:54;;;;;;;4.13;1.53;;;16.20;67.50;17.30;99608.00;;;;5010382;28;20176;-46
2022/11/04 05:48:19;;;;;;;4.40;1.80;;;16.20;67.40;17.30;99609.00;;;;5010274;28;20657;-46
2022/11/04 05:50:45;;;;;;;3.07;1.80;;;16.20;67.40;17.30;99610.00;;;;5010367;28;20188;-47
2022/11/04 05:53:11;;;;;;;7.83;1.83;;;16.20;67.40;17.30;99614.00;;;;5008508;28;20208;-46
2022/11/04 05:55:36;;;;;;;3.50;1.73;;;16.20;67.40;17.30;99604.00;;;;5010081;28;20180;-47
2022/11/04 05:58:02;;;;;;;5.57;2.03;;;16.20;67.50;17.30;99606.00;;;;5010122;28;20176;-47
2022/11/04 06:00:28;;;;;;;5.53;1.60;;;16.20;67.50;17.30;99604.00;;;;5009860;28;20381;-46
2022/11/04 06:02:57;;;;;;;5.70;1.80;;;16.20;67.50;17.30;99605.00;;;;5009375;28;20381;-47
2022/11/04 06:05:23;;;;;;;3.33;1.50;;;16.20;67.60;17.30;99615.00;;;;5010216;28;20175;-47
2022/11/04 06:07:49;;;;;;;3.07;1.77;;;16.20;67.70;17.30;99610.00;;;;4992976;28;20162;-47
2022/11/04 06:10:15;;;;;;;5.87;1.73;;;16.20;67.60;17.30;99613.00;;;;5009919;28;20221;-47
2022/11/04 06:12:40;;;;;;;4.10;1.70;;;16.20;67.60;17.20;99610.00;;;;5009450;28;20739;-46
2022/11/04 06:15:07;;;;;;;7.00;1.70;;;16.20;67.70;17.30;99617.00;;;;5009790;28;20176;-47
2022/11/04 06:17:33;;;;;;;4.60;1.80;;;16.20;68.00;17.30;99621.00;;;;5008740;28;20172;-46
2022/11/04 06:19:58;;;;;;;5.17;1.90;;;16.20;68.00;17.30;99625.00;;;;5009284;28;20884;-46
2022/11/04 06:22:24;;;;;;;6.17;2.13;;;16.20;68.30;17.30;99626.00;;;;5009772;28;20557;-45
2022/11/04 06:24:50;;;;;;;7.53;2.00;;;16.20;68.40;17.30;99624.00;;;;5009398;28;20188;-45
2022/11/04 06:27:16;;;;;;;7.17;2.10;;;16.20;68.80;17.30;99630.00;;;;4975768;28;20164;-46
2022/11/04 06:29:42;;;;;;;5.20;1.90;;;16.20;69.00;17.30;99635.00;;;;5008422;28;20202;-47
2022/11/04 06:32:14;;;;;;;9.10;1.90;;;16.20;69.00;17.30;99649.00;;;;5008065;28;20204;-46
2022/11/04 06:34:40;;;;;;;8.63;2.27;;;16.20;69.00;17.30;99648.00;;;;5009283;28;20152;-46
2022/11/04 06:37:06;;;;;;;2.53;1.90;;;16.20;68.90;17.30;99649.00;;;;5009568;28;20172;-46
2022/11/04 06:39:32;;;;;;;8.17;2.07;;;16.20;69.00;17.30;99655.00;;;;5008565;28;20173;-45
2022/11/04 06:41:57;;;;;;;5.63;2.07;;;16.20;69.00;17.30;99650.00;;;;5009265;28;20168;-45
2022/11/04 06:44:23;;;;;;;6.93;2.00;;;16.20;69.20;17.30;99664.00;;;;5009364;28;20175;-47
2022/11/04 06:46:49;;;;;;;6.70;1.90;;;16.20;69.10;17.30;99655.00;;;;5009396;28;20171;-47
2022/11/04 06:49:22;;;;;;;8.10;1.90;;;16.20;69.00;17.30;99653.00;;;;5009487;28;20254;-46
2022/11/04 06:51:48;;;;;;;4.60;1.90;;;16.20;69.00;17.30;99660.00;;;;5008611;28;20204;-45
2022/11/04 06:54:14;;;;;;;5.63;1.93;;;16.20;69.00;17.20;99661.00;;;;4888193;28;22352;-46
2022/11/04 06:56:40;;;;;;;2.97;1.80;;;16.20;68.90;17.20;99671.00;;;;5008107;28;20234;-47
2022/11/04 06:59:06;;;;;;;6.00;2.03;;;16.20;68.90;17.20;99676.00;;;;4991029;28;20176;-46
2022/11/04 07:01:35;;;;;;;4.13;1.80;;;16.20;68.90;17.20;99664.00;;;;5008186;28;20655;-46
2022/11/04 07:04:01;;;;;;;3.90;1.70;;;16.20;68.90;17.20;99673.00;;;;5008499;28;20525;-45
2022/11/04 07:06:30;;;;;;;4.07;2.00;;;16.10;68.80;17.20;99672.00;;;;5008499;28;20183;-45
2022/11/04 07:08:58;;;;;;;3.47;1.97;;;16.20;69.10;17.20;99674.00;;;;5008324;28;20789;-46
2022/11/04 07:11:24;;;;;;;3.70;1.80;;;16.20;69.00;17.20;99679.00;;;;5023382;28;20590;-46
2022/11/04 07:13:50;;;;;;;4.53;1.80;;;16.10;68.90;17.20;99684.00;;;;5028744;28;20179;-46
2022/11/04 07:16:16;;;;;;;4.80;1.70;;;16.10;69.00;17.20;99684.00;;;;5028676;28;20610;-46
2022/11/04 07:18:42;;;;;;;4.27;1.80;;;16.10;69.00;17.20;99677.00;;;;5027560;28;20180;-46
2022/11/04 07:21:08;;;;;;;4.53;1.70;;;16.10;68.90;17.20;99694.00;;;;5027485;28;20171;-46
2022/11/04 07:23:34;;;;;;;5.73;2.03;;;16.10;69.00;17.20;99703.00;;;;5027751;28;20620;-46
2022/11/04 07:26:01;;;;;;;3.70;1.70;;;16.10;69.00;17.20;99699.00;;;;5027855;28;20214;-46
2022/11/04 07:28:27;;;;;;;3.37;1.73;;;16.10;68.90;17.10;99706.00;;;;5027585;28;20233;-46
2022/11/04 07:31:03;;;;;;;4.27;1.90;;;16.10;69.00;17.10;99709.00;;;;5010459;28;20686;-45
2022/11/04 07:33:29;;;;;;;4.63;1.70;;;16.10;69.00;17.10;99706.00;;;;5029164;28;20206;-46
2022/11/04 07:35:55;;;;;;;3.43;1.90;;;16.10;69.00;17.10;99720.00;;;;5028704;28;20595;-45
2022/11/04 07:38:21;;;;;;;3.80;1.80;;;16.00;68.90;17.10;99719.00;;;;5028789;28;20163;-45
2022/11/04 07:40:46;;;;;;;2.20;1.57;;;16.10;68.90;17.10;99732.00;;;;5028893;28;20598;-46
2022/11/04 07:43:12;;;;;;;3.87;1.73;;;16.00;68.80;17.10;99736.00;;;;5028321;28;20270;-46
2022/11/04 07:45:38;;;;;;;2.87;1.70;;;16.00;68.80;17.10;99741.00;;;;5028801;28;20674;-47
2022/11/04 07:48:04;;;;;;;2.17;1.60;;;16.00;68.80;17.10;99752.00;;;;5028668;28;20666;-46
2022/11/04 07:50:30;;;;;;;2.87;1.60;;;16.00;68.80;17.10;99748.00;;;;5028386;28;20167;-47
2022/11/04 07:52:55;;;;;;;2.73;1.60;;;16.00;68.80;17.00;99757.00;;;;5027802;28;20213;-47
2022/11/04 07:55:21;;;;;;;4.50;1.90;;;16.00;68.80;17.00;99752.00;;;;5028275;28;20179;-47
2022/11/04 07:57:47;;;;;;;4.90;2.00;;;16.00;68.80;17.00;99751.00;;;;5028424;28;20183;-47
2022/11/04 08:00:14;;;;;;;3.80;1.70;;;16.00;68.80;17.00;99748.00;;;;5028382;28;20621;-47
2022/11/04 08:02:45;;;;;;;2.07;1.60;;;16.00;68.80;17.00;99761.00;;;;5028217;28;20204;-47
2022/11/04 08:05:14;;;;;;;3.13;1.80;;;16.00;68.80;17.00;99762.00;;;;5028319;28;20250;-47
2022/11/04 08:07:40;;;;;;;2.80;1.67;;;16.00;68.80;17.00;99765.00;;;;5028400;28;20187;-46
2022/11/04 08:10:06;;;;;;;3.00;1.50;;;16.00;68.80;17.00;99757.00;;;;5028513;28;20241;-46
2022/11/04 08:12:32;;;;;;;2.20;1.47;;;15.90;68.60;17.00;99760.00;;;;5010744;28;20242;-45
2022/11/04 08:14:58;;;;;;;2.77;1.63;;;16.00;68.80;17.00;99765.00;;;;5028375;28;20218;-46
2022/11/04 08:17:25;;;;;;;2.50;1.47;;;15.90;68.50;17.00;99768.00;;;;5030554;28;20198;-46
2022/11/04 08:19:50;;;;;;;1.67;1.40;;;16.00;68.70;17.00;99771.00;;;;5014041;28;20195;-45
2022/11/04 08:22:16;;;;;;;2.87;1.50;;;15.90;68.60;17.00;99777.00;;;;5031868;28;20223;-46
2022/11/04 08:24:42;;;;;;;2.50;1.60;;;16.00;68.70;17.00;99779.00;;;;5032172;28;20270;-46
2022/11/04 08:27:08;;;;;;;1.53;1.33;;;15.90;68.50;17.00;99784.00;;;;5032036;28;20601;-46
2022/11/04 08:29:35;;;;;;;2.73;1.40;;;15.90;68.50;17.00;99778.00;;;;5031532;28;20172;-46
2022/11/04 08:32:00;;;;;;;2.63;1.60;;;15.90;68.60;17.00;99783.00;;;;5031662;28;20276;-46
2022/11/04 08:34:26;;;;;;;1.53;1.40;;;15.90;68.50;17.00;99774.00;;;;5031776;28;20635;-46
2022/11/04 08:36:52;;;;;;;2.23;1.50;;;15.90;68.50;17.00;99772.00;;;;5031765;28;20171;-45
2022/11/04 08:39:18;;;;;;;3.47;1.50;;;15.90;68.50;17.00;99779.00;;;;5031785;28;20167;-45
2022/11/04 08:41:44;;;;;;;1.80;1.40;;;15.90;68.50;17.00;99782.00;;;;5031460;28;20632;-46
2022/11/04 08:44:13;;;;;;;2.00;1.70;;;15.90;68.50;17.00;99762.00;;;;5031317;28;20171;-46
2022/11/04 08:46:39;;;;;;;1.33;1.30;;;15.90;68.60;17.00;99754.00;;;;5014373;28;20171;-46
2022/11/04 08:49:05;;;;;;;2.60;1.50;;;15.90;68.60;17.00;99756.00;;;;5031727;28;20186;-46
2022/11/04 08:51:31;;;;;;;1.83;1.43;;;15.90;68.60;17.00;99765.00;;;;5031172;28;20167;-46
2022/11/04 08:53:58;;;;;;;1.77;1.50;;;15.90;68.50;17.00;99768.00;;;;5031561;28;20190;-45
2022/11/04 08:56:29;;;;;;;1.90;1.70;;;15.90;68.50;17.00;99768.00;;;;5031764;28;20162;-45
2022/11/04 08:58:55;;;;;;;1.60;1.50;;;15.90;68.50;17.00;99764.00;;;;5031728;28;20532;-45
2022/11/04 09:01:21;;;;;;;1.50;1.30;;;15.90;68.50;17.00;99772.00;;;;5032028;28;20187;-46
2022/11/04 09:03:47;;;;;;;1.73;1.40;;;15.90;68.50;17.00;99771.00;;;;5031222;28;20191;-45
2022/11/04 09:06:18;;;;;;;2.20;1.47;;;15.90;68.50;16.90;99774.00;;;;5031292;28;20189;-45
2022/11/04 09:08:44;;;;;;;2.00;1.33;;;15.90;68.50;16.90;99769.00;;;;5031632;28;20159;-45
2022/11/04 09:11:11;;;;;;;1.40;1.30;;;15.90;68.50;16.90;99768.00;;;;5030940;28;20184;-47
2022/11/04 09:13:37;;;;;;;1.30;1.20;;;15.90;68.50;16.90;99773.00;;;;5030755;28;20289;-47
2022/11/04 09:16:03;;;;;;;2.00;1.50;;;15.90;68.50;16.90;99770.00;;;;5030990;28;20259;-46
2022/11/04 09:18:29;;;;;;;2.17;1.50;;;15.90;68.40;16.90;99765.00;;;;5031041;28;20241;-47
2022/11/04 09:20:59;;;;;;;1.73;1.40;;;15.80;68.40;16.90;99770.00;;;;5030714;28;20548;-47
2022/11/04 09:23:25;;;;;;;1.70;1.37;;;15.90;68.50;16.90;99766.00;;;;5030558;28;20195;-45
2022/11/04 09:25:50;;;;;;;1.47;1.30;;;15.80;68.40;16.90;99756.00;;;;5030610;28;20171;-47
2022/11/04 09:28:16;;;;;;;1.57;1.47;;;15.80;68.40;16.90;99760.00;;;;5030690;28;20199;-45
2022/11/04 09:30:42;;;;;;;1.63;1.27;;;15.80;68.40;16.90;99759.00;;;;5031035;28;20201;-45
2022/11/04 09:33:08;;;;;;;1.53;1.43;;;15.80;68.40;16.90;99768.00;;;;5030335;28;20207;-45
2022/11/04 09:35:33;;;;;;;1.80;1.40;;;15.80;68.30;16.90;99762.00;;;;5030262;28;20167;-45
2022/11/04 09:38:02;;;;;;;1.50;1.40;;;15.80;68.40;16.90;99774.00;;;;5030717;28;20177;-45
2022/11/04 09:40:28;;;;;;;1.60;1.50;;;15.80;68.40;16.90;99775.00;;;;5030769;28;20175;-45
2022/11/04 09:43:12;;;;;;;1.40;1.27;;;15.80;68.40;16.90;99773.00;;;;5012295;28;20203;-46
2022/11/04 09:45:39;;;;;;;1.83;1.40;;;15.80;68.50;16.90;99774.00;;;;5013171;28;20532;-46
2022/11/04 09:48:07;;;;;;;2.03;1.40;;;15.80;68.40;16.90;99767.00;;;;5012782;28;20210;-47
2022/11/04 09:50:46;;;;;;;1.40;1.23;;;15.80;68.40;16.90;99758.00;;;;5012554;28;20195;-46
2022/11/04 09:53:33;;;;;;;1.40;1.30;;;15.80;68.40;16.90;99771.00;;;;4996218;28;20252;-46
2022/11/04 09:56:03;;;;;;;2.17;1.50;;;15.80;68.40;16.90;99765.00;;;;5014772;28;20353;-46
2022/11/04 09:58:33;;;;;;;3.17;1.50;;;15.80;68.40;16.90;99761.00;;;;4996425;28;20171;-46
2022/11/04 10:01:19;;;;;;;1.70;1.33;;;15.80;68.40;16.90;99778.00;;;;5012289;28;20174;-45
2022/11/04 10:04:13;;;;;;;1.47;1.37;;;15.80;68.40;16.90;99774.00;;;;4997178;28;20205;-44
2022/11/04 10:07:22;;;;;;;1.60;1.50;;;15.80;68.40;16.90;99781.00;;;;5012605;28;20159;-45
2022/11/04 10:10:15;;;;;;;1.90;1.43;;;15.80;68.40;16.90;99790.00;;;;5012562;28;20155;-45
2022/11/04 10:13:00;;;;;;;1.83;1.40;;;15.80;68.50;16.80;99791.00;;;;5029880;28;20209;-45
2022/11/04 10:16:08;;;;;;;1.20;1.10;;;15.80;68.50;16.80;99784.00;;;;5013213;28;20402;-46
2022/11/04 10:18:41;;;;;;;1.50;1.40;;;15.80;68.60;16.80;99796.00;;;;5021786;28;20690;-46
2022/11/04 10:21:45;;;;;;;1.70;1.30;;;15.80;68.60;16.80;99788.00;;;;5012159;28;20156;-46
2022/11/04 10:24:29;;;;;;;1.40;1.30;;;15.80;68.60;16.80;99791.00;;;;5016320;28;20596;-46
2022/11/04 10:27:11;;;;;;;2.17;1.27;;;15.80;68.60;16.80;99790.00;;;;5029046;28;20180;-49
2022/11/04 10:30:00;;;;;;;3.17;1.70;;;15.80;68.70;16.80;99788.00;;;;5011416;28;20198;-47
2022/11/04 10:32:46;;;;;;;10.93;1.60;;;15.80;69.20;16.80;99789.00;;;;5010872;28;20202;-47
2022/11/04 10:35:27;;;;;;;4.17;1.67;;;15.80;69.20;16.80;99783.00;;;;5011064;28;20156;-47
2022/11/04 10:37:53;;;;;;;4.97;1.90;;;15.90;69.50;16.80;99779.00;;;;5011675;28;20616;-48
2022/11/04 10:40:35;;;;;;;3.77;1.50;;;15.90;69.60;16.70;99807.00;;;;5010691;28;20159;-48
2022/11/04 10:43:09;;;;;;;3.43;1.87;;;16.00;69.00;16.90;99788.00;;;;4920540;28;20425;-48
2022/11/04 10:45:58;;;;;;;3.57;1.53;;;16.10;69.60;17.00;99781.00;;;;4991727;28;20175;-48
2022/11/04 10:48:49;;;;;;;4.17;1.40;;;16.30;69.40;17.10;99794.00;;;;4972054;28;20276;-48
2022/11/04 10:51:20;;;;;;;3.53;1.67;;;16.40;69.10;17.20;99783.00;;;;4957003;28;20199;-48
2022/11/04 10:53:56;;;;;;;4.53;1.53;;;16.60;68.90;17.30;99809.00;;;;4972809;28;20750;-48
2022/11/04 10:56:48;;;;;;;2.10;1.67;;;16.80;68.60;17.40;99796.00;;;;5009358;28;20635;-48
2022/11/04 10:59:52;;;;;;;4.27;1.63;;;17.00;68.40;17.50;99813.00;;;;4977415;28;20174;-47
2022/11/04 11:02:18;;;;;;;4.17;1.70;;;17.20;68.10;17.70;99809.00;;;;4981613;28;20206;-48
2022/11/04 11:04:45;;;;;;;3.23;1.70;;;17.40;67.80;17.80;99807.00;;;;4991768;28;20757;-48
2022/11/04 11:07:12;;;;;;;2.57;1.43;;;17.60;67.60;17.90;99827.00;;;;4975902;28;20163;-47
2022/11/04 11:09:47;;;;;;;2.13;1.47;;;17.70;67.00;18.10;99813.00;;;;5008853;28;20167;-48
2022/11/04 11:12:13;;;;;;;3.13;1.60;;;18.00;67.20;18.20;99824.00;;;;4991169;28;20432;-47
2022/11/04 11:14:40;;;;;;;2.57;1.50;;;18.10;66.80;18.30;99817.00;;;;5008853;28;20632;-47
2022/11/04 11:17:44;;;;;;;1.80;1.37;;;18.30;66.60;18.50;99826.00;;;;5008555;28;20667;-48
2022/11/04 11:20:19;;;;;;;2.40;1.53;;;18.40;66.50;18.60;99834.00;;;;4912489;29;20761;-48
2022/11/04 11:22:47;;;;;;;3.30;1.57;;;18.50;66.20;18.70;99828.00;;;;4927997;29;20220;-47
2022/11/04 11:25:26;;;;;;;2.73;1.43;;;18.70;66.20;18.80;99829.00;;;;4955024;28;20211;-48
2022/11/04 11:27:56;;;;;;;2.13;1.50;;;18.80;66.10;18.90;99824.00;;;;4990976;28;20218;-48
2022/11/04 11:30:23;;;;;;;1.40;1.30;;;19.00;66.00;19.10;99826.00;;;;4991493;28;20179;-48
2022/11/04 11:33:04;;;;;;;3.07;1.37;;;19.10;66.00;19.20;99824.00;;;;5008488;28;20576;-47
2022/11/04 11:35:41;;;;;;;1.93;1.47;;;19.10;65.80;19.30;99829.00;;;;4960384;28;20159;-48
2022/11/04 11:38:24;;;;;;;2.07;1.43;;;19.30;66.00;19.40;99828.00;;;;4975288;28;20218;-48
2022/11/04 11:40:51;;;;;;;1.33;1.23;;;19.30;66.00;19.50;99831.00;;;;4907133;28;21993;-47
2022/11/04 11:43:28;;;;;;;1.70;1.50;;;19.40;65.90;19.60;99834.00;;;;4975031;28;20195;-46
2022/11/04 11:45:56;;;;;;;1.73;1.40;;;19.50;65.80;19.70;99841.00;;;;4974650;28;20652;-48
2022/11/04 11:48:30;;;;;;;1.93;1.23;;;19.60;65.70;19.80;99834.00;;;;4975808;28;20281;-47